Time;durP1;ratioP1;P1;durP2;ratioP2;P2;SDS_P1;SDS_P2;PMS_P1;PMS_P2;Temp;Humidity;BMP_temperature;BMP_pressure;BME280_temperature;BME280_humidity;BME280_pressure;Samples;Min_cycle;Max_cycle;Signal;HPM_P1;HPM_P2
2023/06/03 00:01:57;;;;;;;1.60;0.80;;;;;;;11.25;45.33;100920.56;5050821;28;20233;-63
2023/06/03 00:04:29;;;;;;;1.63;0.90;;;;;;;11.25;45.57;100935.19;5053898;28;20217;-62
2023/06/03 00:06:59;;;;;;;1.23;1.13;;;;;;;11.18;45.85;100924.00;5052503;28;20212;-62
2023/06/03 00:09:27;;;;;;;3.97;1.10;;;;;;;11.06;46.43;100927.44;5049942;28;20232;-64
2023/06/03 00:11:55;;;;;;;1.23;0.90;;;;;;;11.03;46.59;100930.00;5051654;28;20204;-62
2023/06/03 00:14:23;;;;;;;2.30;1.10;;;;;;;10.97;46.45;100922.28;5052469;28;20563;-63
2023/06/03 00:16:51;;;;;;;10.63;6.13;;;;;;;10.95;46.74;100929.16;5054642;28;20244;-63
2023/06/03 00:19:20;;;;;;;2.37;0.80;;;;;;;10.93;46.91;100928.28;5050023;28;20209;-62
2023/06/03 00:21:49;;;;;;;3.33;0.97;;;;;;;10.94;47.27;100924.88;5053618;28;20213;-64
2023/06/03 00:24:22;;;;;;;1.77;0.90;;;;;;;10.97;47.03;100927.44;5050463;28;20230;-63
2023/06/03 00:26:51;;;;;;;2.37;1.20;;;;;;;10.96;47.37;100932.59;5050322;28;20285;-62
2023/06/03 00:29:19;;;;;;;4.60;1.20;;;;;;;10.96;47.58;100930.88;5056402;28;20666;-63
2023/06/03 00:31:47;;;;;;;2.40;1.00;;;;;;;10.99;47.37;100920.56;5054714;28;20667;-63
2023/06/03 00:34:15;;;;;;;1.43;0.80;;;;;;;11.02;47.67;100937.75;5057558;28;20230;-64
2023/06/03 00:36:43;;;;;;;0.77;0.67;;;;;;;11.03;47.66;100930.00;5040734;28;20559;-62
2023/06/03 00:39:11;;;;;;;0.93;0.80;;;;;;;11.06;47.52;100934.31;5046323;28;20751;-62
2023/06/03 00:41:41;;;;;;;1.43;1.07;;;;;;;11.05;47.35;100935.19;5050036;28;20198;-63
2023/06/03 00:44:09;;;;;;;2.23;1.33;;;;;;;11.06;47.32;100930.03;5053456;28;20202;-63
2023/06/03 00:46:37;;;;;;;2.33;0.93;;;;;;;11.04;47.49;100936.88;5048306;28;20201;-62
2023/06/03 00:49:05;;;;;;;2.53;0.80;;;;;;;10.98;47.34;100934.31;5051600;28;20225;-64
2023/06/03 00:51:36;;;;;;;1.80;0.90;;;;;;;10.89;47.64;100932.56;5048497;28;20209;-62
2023/06/03 00:54:04;;;;;;;4.23;0.70;;;;;;;10.84;47.63;100931.72;5050007;28;20560;-63
2023/06/03 00:56:43;;;;;;;2.40;1.00;;;;;;;10.84;48.30;100944.59;5050673;28;20684;-63
2023/06/03 00:59:16;;;;;;;2.47;0.90;;;;;;;10.82;48.09;100946.31;5053012;28;20620;-63
2023/06/03 01:01:45;;;;;;;2.10;1.00;;;;;;;10.80;48.28;100942.03;5049757;28;20255;-63
2023/06/03 01:04:16;;;;;;;0.83;0.80;;;;;;;10.81;47.93;100948.91;5050965;28;20232;-63
2023/06/03 01:06:55;;;;;;;1.40;0.90;;;;;;;10.76;48.13;100950.63;5047273;28;20194;-63
2023/06/03 01:09:32;;;;;;;1.73;0.80;;;;;;;10.73;48.61;100950.59;5047689;28;20579;-63
2023/06/03 01:12:08;;;;;;;1.37;1.00;;;;;;;10.71;48.66;100955.72;5053246;28;20205;-63
2023/06/03 01:14:44;;;;;;;2.40;0.83;;;;;;;10.72;48.71;100949.75;5048867;28;20209;-62
2023/06/03 01:17:15;;;;;;;5.17;1.23;;;;;;;10.69;48.74;100949.72;5052404;28;20688;-63
2023/06/03 01:19:49;;;;;;;1.87;0.80;;;;;;;10.63;48.63;100949.69;5051655;28;20537;-62
2023/06/03 01:22:20;;;;;;;4.93;1.60;;;;;;;10.60;48.27;100960.88;5045159;28;20218;-65
2023/06/03 01:24:50;;;;;;;0.90;0.90;;;;;;;10.59;48.53;100964.31;5052054;28;20331;-63
2023/06/03 01:27:20;;;;;;;3.57;0.93;;;;;;;10.56;49.15;100961.72;5059862;28;20212;-63
2023/06/03 01:29:48;;;;;;;2.30;0.97;;;;;;;10.55;48.55;100965.16;5046948;28;20217;-64
2023/06/03 01:32:18;;;;;;;1.87;1.07;;;;;;;10.49;48.97;100962.53;5054566;28;20205;-64
2023/06/03 01:34:47;;;;;;;0.90;0.80;;;;;;;10.47;49.14;100963.41;5059064;28;20542;-63
2023/06/03 01:37:15;;;;;;;2.10;0.90;;;;;;;10.39;48.79;100965.97;5053532;28;20717;-64
2023/06/03 01:39:43;;;;;;;2.17;1.13;;;;;;;10.33;49.64;100976.22;5040870;28;20219;-64
2023/06/03 01:42:13;;;;;;;1.77;1.10;;;;;;;10.28;49.07;100976.22;5053937;28;20206;-65
2023/06/03 01:44:41;;;;;;;2.10;0.93;;;;;;;10.22;49.63;100975.28;5053992;28;20212;-62
2023/06/03 01:47:10;;;;;;;0.97;0.80;;;;;;;10.23;49.74;100979.56;5052540;28;20569;-63
2023/06/03 01:49:39;;;;;;;2.10;0.87;;;;;;;10.24;49.41;100979.59;5053725;28;20206;-63
2023/06/03 01:52:07;;;;;;;1.53;0.90;;;;;;;10.25;49.60;100986.50;5044238;28;20556;-62
2023/06/03 01:54:35;;;;;;;1.77;1.00;;;;;;;10.22;50.01;100985.59;5052530;28;20202;-63
2023/06/03 01:57:03;;;;;;;2.30;0.93;;;;;;;10.20;49.37;100984.72;5061708;28;20707;-62
2023/06/03 01:59:33;;;;;;;1.30;0.83;;;;;;;10.19;50.27;100988.16;5054437;28;20234;-62
2023/06/03 02:02:01;;;;;;;3.70;1.00;;;;;;;10.15;49.92;100993.28;5053808;28;20231;-63
2023/06/03 02:04:29;;;;;;;1.20;0.90;;;;;;;10.12;50.38;100987.25;5062871;28;20213;-62
2023/06/03 02:06:59;;;;;;;1.67;0.90;;;;;;;10.14;49.94;100990.69;5048523;28;20201;-63
2023/06/03 02:09:28;;;;;;;2.17;1.13;;;;;;;10.16;50.00;100991.56;5056344;28;20197;-63
2023/06/03 02:11:56;;;;;;;2.70;0.80;;;;;;;10.20;49.73;100995.91;5060811;28;20233;-63
2023/06/03 02:14:25;;;;;;;1.67;0.77;;;;;;;10.23;50.28;100992.44;5054110;28;20701;-62
2023/06/03 02:16:56;;;;;;;1.33;0.97;;;;;;;10.22;50.38;100998.47;5053549;28;20230;-64
2023/06/03 02:19:26;;;;;;;1.70;1.00;;;;;;;10.12;50.12;101003.56;5058555;28;20213;-62
2023/06/03 02:21:57;;;;;;;3.00;1.17;;;;;;;10.10;50.78;101007.84;5052520;28;20194;-63
2023/06/03 02:24:28;;;;;;;2.83;1.30;;;;;;;10.09;50.57;101010.44;5053560;28;20586;-64
2023/06/03 02:27:00;;;;;;;1.03;0.93;;;;;;;10.05;50.26;101009.53;5051704;28;20198;-62
2023/06/03 02:29:30;;;;;;;1.50;0.73;;;;;;;10.05;50.91;101021.53;5056187;28;20707;-62
2023/06/03 02:32:00;;;;;;;2.00;1.30;;;;;;;10.00;50.74;101018.09;5056596;28;20660;-62
2023/06/03 02:34:29;;;;;;;1.00;0.80;;;;;;;9.92;50.86;101026.63;5048586;28;20206;-63
2023/06/03 02:36:56;;;;;;;2.33;1.10;;;;;;;9.91;51.34;101024.03;5052472;28;20289;-63
2023/06/03 02:39:25;;;;;;;1.63;1.10;;;;;;;9.84;51.35;101024.84;5035016;28;20206;-62
2023/06/03 02:41:53;;;;;;;3.13;1.17;;;;;;;9.80;52.01;101021.38;5035244;28;20293;-62
2023/06/03 02:44:21;;;;;;;2.23;1.40;;;;;;;9.79;51.01;101032.50;5052079;28;20194;-64
2023/06/03 02:46:49;;;;;;;11.87;9.87;;;;;;;9.77;51.32;101034.22;5057765;28;20568;-63
2023/06/03 02:49:18;;;;;;;4.30;1.60;;;;;;;9.74;51.60;101030.78;5051937;28;20201;-62
2023/06/03 02:51:46;;;;;;;1.47;1.13;;;;;;;9.75;52.00;101032.47;5052899;28;20206;-62
2023/06/03 02:54:14;;;;;;;2.23;0.93;;;;;;;9.74;51.47;101036.78;5059091;28;20206;-62
2023/06/03 02:56:42;;;;;;;3.73;1.07;;;;;;;9.72;51.56;101042.75;5052657;28;20206;-66
2023/06/03 02:59:10;;;;;;;3.13;1.23;;;;;;;9.72;51.68;101037.59;5054341;28;20225;-62
2023/06/03 03:01:38;;;;;;;2.07;1.10;;;;;;;9.74;52.65;101043.63;5051715;28;20282;-65
2023/06/03 03:04:06;;;;;;;1.63;0.87;;;;;;;9.72;52.43;101043.63;5056593;28;20202;-62
2023/06/03 03:06:37;;;;;;;2.17;1.00;;;;;;;9.67;52.44;101035.84;5048787;28;20248;-62
2023/06/03 03:09:05;;;;;;;2.73;1.10;;;;;;;9.65;52.35;101037.56;5047644;28;20210;-62
2023/06/03 03:11:33;;;;;;;3.97;1.47;;;;;;;9.63;52.50;101034.13;5051709;28;20198;-62
2023/06/03 03:14:01;;;;;;;1.47;0.83;;;;;;;9.60;52.36;101034.09;5051015;28;20213;-63
2023/06/03 03:16:29;;;;;;;2.60;1.30;;;;;;;9.57;53.11;101041.81;5051589;28;20237;-62
2023/06/03 03:18:58;;;;;;;0.80;0.77;;;;;;;9.56;53.52;101047.78;5049004;28;20214;-63
2023/06/03 03:21:26;;;;;;;2.90;1.00;;;;;;;9.62;53.33;101052.97;5059707;28;20629;-63
2023/06/03 03:23:55;;;;;;;2.07;0.97;;;;;;;9.60;52.55;101048.66;5050528;28;20213;-63
2023/06/03 03:26:24;;;;;;;1.83;1.00;;;;;;;9.62;53.55;101058.13;5046443;28;20220;-63
2023/06/03 03:28:53;;;;;;;3.10;1.20;;;;;;;9.66;53.10;101054.72;5054238;28;20619;-63
2023/06/03 03:31:21;;;;;;;2.03;0.80;;;;;;;9.66;52.58;101054.72;5051305;28;20206;-63
2023/06/03 03:33:50;;;;;;;1.57;0.80;;;;;;;9.69;53.03;101059.06;5057149;28;20205;-63
2023/06/03 03:36:22;;;;;;;3.07;1.23;;;;;;;9.72;53.30;101058.19;5053489;28;20317;-64
2023/06/03 03:39:00;;;;;;;1.53;1.10;;;;;;;9.76;52.70;101067.69;5055168;28;20225;-62
2023/06/03 03:41:30;;;;;;;2.53;1.30;;;;;;;9.77;52.79;101066.84;5040700;28;20548;-63
2023/06/03 03:43:59;;;;;;;4.27;1.30;;;;;;;9.77;53.16;101077.13;5061636;28;20200;-63
2023/06/03 03:46:27;;;;;;;0.67;0.67;;;;;;;9.77;53.45;101079.69;5060787;28;20297;-63
2023/06/03 03:48:55;;;;;;;3.83;1.07;;;;;;;9.81;53.42;101078.88;5060323;28;20225;-62
2023/06/03 03:51:23;;;;;;;2.50;1.10;;;;;;;9.80;53.33;101087.44;5051286;28;20635;-61
2023/06/03 03:53:51;;;;;;;1.33;1.00;;;;;;;9.82;53.42;101090.88;5051115;28;20305;-62
2023/06/03 03:56:22;;;;;;;3.83;0.97;;;;;;;9.84;53.10;101082.34;5051485;28;20252;-62
2023/06/03 03:58:53;;;;;;;1.90;0.90;;;;;;;9.85;53.73;101080.63;5052785;28;20679;-62
2023/06/03 04:01:23;;;;;;;2.97;1.00;;;;;;;9.87;53.24;101084.94;5061431;28;20246;-63
2023/06/03 04:03:54;;;;;;;3.93;1.03;;;;;;;9.89;53.53;101078.06;5052056;28;20553;-63
2023/06/03 04:06:32;;;;;;;2.07;0.90;;;;;;;9.92;53.55;101090.13;5062977;28;20204;-63
2023/06/03 04:09:01;;;;;;;0.93;0.83;;;;;;;9.92;53.65;101087.53;5051640;28;20241;-63
2023/06/03 04:11:31;;;;;;;2.07;0.90;;;;;;;10.01;53.70;101092.75;5051606;28;20217;-63
2023/06/03 04:14:03;;;;;;;3.87;1.17;;;;;;;10.10;53.24;101091.97;5050728;28;20201;-63
2023/06/03 04:16:49;;;;;;;3.33;1.17;;;;;;;10.19;53.72;101096.31;5046814;28;20213;-63
2023/06/03 04:19:20;;;;;;;3.70;0.80;;;;;;;10.26;53.14;101090.38;5050160;28;20206;-63
2023/06/03 04:21:48;;;;;;;1.93;0.80;;;;;;;10.40;52.80;101099.91;5049431;28;20238;-64
2023/06/03 04:24:17;;;;;;;2.53;0.93;;;;;;;10.49;52.84;101096.53;5048477;28;20286;-63
2023/06/03 04:26:45;;;;;;;1.47;0.90;;;;;;;10.58;52.43;101091.44;5049276;28;20213;-63
2023/06/03 04:29:14;;;;;;;3.13;1.10;;;;;;;10.62;52.25;101100.91;5053772;28;20275;-62
2023/06/03 04:31:42;;;;;;;2.97;1.10;;;;;;;10.68;52.55;101101.78;5051822;28;20209;-62
2023/06/03 04:34:10;;;;;;;1.53;0.70;;;;;;;10.75;52.55;101093.22;5051929;28;20198;-63
2023/06/03 04:36:38;;;;;;;3.10;0.90;;;;;;;10.89;52.78;101102.75;5050847;28;20205;-63
2023/06/03 04:39:06;;;;;;;2.97;1.20;;;;;;;11.02;51.99;101108.81;5060548;28;20714;-62
2023/06/03 04:41:34;;;;;;;2.23;1.07;;;;;;;11.06;51.26;101112.28;5050888;28;20671;-63
2023/06/03 04:44:02;;;;;;;2.17;0.90;;;;;;;11.07;50.81;101114.84;5049426;28;20214;-65
2023/06/03 04:46:31;;;;;;;3.37;1.20;;;;;;;11.07;51.11;101112.28;5054761;28;20515;-64
2023/06/03 04:49:01;;;;;;;5.07;1.40;;;;;;;11.07;51.20;101119.16;5047495;28;20199;-63
2023/06/03 04:51:33;;;;;;;2.27;1.00;;;;;;;11.10;51.76;101127.75;5049617;28;21757;-62
2023/06/03 04:54:03;;;;;;;1.53;1.00;;;;;;;11.23;51.67;101127.78;5061475;28;20410;-63
2023/06/03 04:56:31;;;;;;;3.03;1.00;;;;;;;11.39;51.08;101119.25;5058534;28;20198;-63
2023/06/03 04:59:00;;;;;;;1.43;0.83;;;;;;;11.47;51.20;101122.72;5056452;28;20221;-63
2023/06/03 05:01:29;;;;;;;5.83;1.23;;;;;;;11.49;50.50;101125.31;5052497;28;20292;-64
2023/06/03 05:03:58;;;;;;;2.83;0.90;;;;;;;11.45;50.92;101119.28;5062717;28;20216;-63
2023/06/03 05:06:28;;;;;;;2.27;1.20;;;;;;;11.58;51.01;101120.16;5052314;28;20553;-64
2023/06/03 05:08:56;;;;;;;1.40;0.90;;;;;;;11.89;50.89;101120.19;5054928;28;20202;-64
2023/06/03 05:11:24;;;;;;;2.63;1.10;;;;;;;12.23;49.14;101121.06;5055180;28;20201;-63
2023/06/03 05:13:52;;;;;;;3.60;1.20;;;;;;;12.49;48.68;101123.63;5057015;28;20217;-64
2023/06/03 05:16:20;;;;;;;2.40;1.07;;;;;;;12.73;48.63;101120.09;5061926;28;20209;-62
2023/06/03 05:18:48;;;;;;;1.67;1.13;;;;;;;12.93;47.03;101128.66;5050005;28;20218;-64
2023/06/03 05:21:19;;;;;;;1.70;1.10;;;;;;;13.05;47.03;101131.19;5057804;28;20201;-63
2023/06/03 05:23:47;;;;;;;2.13;0.90;;;;;;;13.31;47.40;101127.63;5057470;28;20201;-64
2023/06/03 05:26:15;;;;;;;2.07;1.00;;;;;;;13.72;45.94;101126.50;5060590;28;20953;-63
2023/06/03 05:28:43;;;;;;;1.60;0.87;;;;;;;14.02;45.33;101125.41;5057933;28;20564;-64
2023/06/03 05:31:11;;;;;;;1.33;0.90;;;;;;;14.31;44.24;101125.16;5052101;28;20216;-65
2023/06/03 05:33:40;;;;;;;1.75;1.05;;;;;;;14.48;42.71;101133.63;5061282;28;20206;-62
2023/06/03 05:36:08;;;;;;;2.65;0.90;;;;;;;14.70;43.38;101123.06;5056808;28;20216;-64
2023/06/03 05:38:37;;;;;;;1.30;1.00;;;;;;;15.01;42.60;101122.69;5059469;28;20209;-64
2023/06/03 05:41:06;;;;;;;2.83;0.95;;;;;;;15.20;42.33;101126.75;5057202;28;20689;-64
2023/06/03 05:43:34;;;;;;;3.65;1.20;;;;;;;15.43;41.77;101124.72;5056630;28;20225;-63
2023/06/03 05:46:02;;;;;;;1.92;1.23;;;;;;;15.52;40.34;101123.72;5058002;28;20201;-65
2023/06/03 05:48:30;;;;;;;2.45;1.25;;;;;;;15.49;40.20;101128.94;5057353;28;20601;-63
2023/06/03 05:51:00;;;;;;;2.47;1.00;;;;;;;15.50;40.73;101127.22;5058845;28;20600;-63
2023/06/03 05:53:28;;;;;;;2.53;0.80;;;;;;;15.54;39.68;101128.88;5066475;28;20202;-63
2023/06/03 05:55:57;;;;;;;1.63;0.82;;;;;;;15.54;40.08;101136.66;5059330;28;20209;-62
2023/06/03 05:58:25;;;;;;;1.63;0.80;;;;;;;15.59;40.04;101134.88;5057743;28;20291;-64
2023/06/03 06:00:53;;;;;;;1.35;0.95;;;;;;;15.79;40.32;101134.59;5064344;28;20237;-66
2023/06/03 06:03:21;;;;;;;2.65;0.90;;;;;;;16.00;39.89;101138.59;5055763;28;20212;-64
2023/06/03 06:05:49;;;;;;;1.48;0.93;;;;;;;16.11;39.11;101136.69;5058398;28;20648;-65
2023/06/03 06:08:17;;;;;;;2.50;0.95;;;;;;;16.32;39.36;101136.31;5056892;28;20209;-63
2023/06/03 06:10:45;;;;;;;3.03;0.77;;;;;;;16.51;37.84;101142.03;5055517;28;20716;-64
2023/06/03 06:13:15;;;;;;;1.33;0.90;;;;;;;16.55;37.75;101140.25;5051671;28;20439;-62
2023/06/03 06:15:58;;;;;;;2.15;0.90;;;;;;;16.58;37.75;101137.59;5045276;28;20590;-61
2023/06/03 06:18:26;;;;;;;4.43;1.15;;;;;;;16.80;37.91;101146.72;5057709;28;20288;-60
2023/06/03 06:20:54;;;;;;;1.15;0.70;;;;;;;17.02;37.28;101146.31;5052052;28;20269;-61
2023/06/03 06:23:22;;;;;;;2.28;0.88;;;;;;;17.07;36.34;101152.25;5055681;28;20241;-60
2023/06/03 06:25:51;;;;;;;1.13;0.70;;;;;;;17.15;37.31;101156.41;5058725;28;20581;-61
2023/06/03 06:28:24;;;;;;;1.45;0.65;;;;;;;17.68;37.02;101150.94;5067169;28;20670;-62
2023/06/03 06:30:54;;;;;;;1.65;0.80;;;;;;;18.13;35.35;101142.91;5051054;28;20204;-61
2023/06/03 06:33:22;;;;;;;3.47;0.73;;;;;;;18.61;34.49;101150.34;5059206;28;20209;-62
2023/06/03 06:35:50;;;;;;;1.35;0.85;;;;;;;18.93;33.31;101151.25;5041441;28;20202;-61
2023/06/03 06:38:18;;;;;;;2.95;0.98;;;;;;;19.17;33.46;101145.31;5053889;28;20198;-60
2023/06/03 06:40:46;;;;;;;2.20;0.90;;;;;;;19.43;32.80;101128.00;5046007;28;20248;-61
2023/06/03 06:43:18;;;;;;;1.55;0.80;;;;;;;19.70;32.39;101137.63;5054671;28;20660;-61
2023/06/03 06:45:48;;;;;;;1.48;1.13;;;;;;;19.73;31.63;101144.50;5057170;28;20295;-60
2023/06/03 06:48:16;;;;;;;2.78;1.13;;;;;;;19.79;31.89;101152.16;5050044;28;20205;-63
2023/06/03 06:50:49;;;;;;;1.73;0.70;;;;;;;19.95;31.51;101142.03;5056241;28;20288;-59
2023/06/03 06:53:19;;;;;;;5.07;1.20;;;;;;;20.14;30.78;101148.41;5056861;28;20288;-61
2023/06/03 06:55:49;;;;;;;4.53;1.75;;;;;;;20.06;30.83;101142.53;5059675;28;20205;-61
2023/06/03 06:58:18;;;;;;;3.17;0.95;;;;;;;20.21;31.36;101134.19;5052978;28;20328;-61
2023/06/03 07:00:48;;;;;;;2.22;0.90;;;;;;;20.56;30.29;101132.13;5054820;28;20230;-61
2023/06/03 07:03:18;;;;;;;1.98;1.15;;;;;;;20.57;29.71;101133.84;5051940;28;20228;-60
2023/06/03 07:05:52;;;;;;;2.38;0.90;;;;;;;20.83;29.82;101134.66;5056141;28;20622;-60
2023/06/03 07:08:22;;;;;;;1.55;0.75;;;;;;;21.03;29.06;101140.03;5053692;28;20197;-60
2023/06/03 07:10:50;;;;;;;1.55;0.90;;;;;;;20.97;28.71;101133.22;5055896;28;20210;-60
2023/06/03 07:13:18;;;;;;;2.28;0.77;;;;;;;20.96;28.79;101136.78;5054517;28;20718;-63
2023/06/03 07:15:46;;;;;;;2.00;0.90;;;;;;;21.20;28.45;101132.34;5057271;28;20232;-60
2023/06/03 07:18:15;;;;;;;1.02;0.80;;;;;;;20.88;27.59;101132.75;5048030;28;20201;-61
2023/06/03 07:20:45;;;;;;;2.55;1.13;;;;;;;20.22;28.90;101133.28;5046280;28;20240;-61
2023/06/03 07:23:14;;;;;;;2.15;0.93;;;;;;;19.73;29.78;101134.03;5054762;28;20213;-60
2023/06/03 07:25:44;;;;;;;2.40;0.68;;;;;;;19.73;30.48;101134.88;5064045;28;20208;-60
2023/06/03 07:28:13;;;;;;;0.68;0.68;;;;;;;20.03;29.91;101130.44;5055903;28;20248;-61
2023/06/03 07:30:43;;;;;;;2.05;0.52;;;;;;;20.31;29.43;101128.63;5060520;28;20289;-60
2023/06/03 07:33:22;;;;;;;1.08;0.55;;;;;;;20.62;28.98;101129.31;5059062;28;20655;-60
2023/06/03 07:35:54;;;;;;;1.00;0.50;;;;;;;20.89;28.19;101127.44;5055741;28;20201;-61
2023/06/03 07:38:56;;;;;;;0.50;0.50;;;;;;;20.71;28.03;101123.72;5050770;28;20324;-61
2023/06/03 07:41:39;;;;;;;1.35;0.68;;;;;;;19.97;28.75;101132.41;5057718;28;20217;-60
2023/06/03 07:44:10;;;;;;;0.68;0.68;;;;;;;19.14;29.89;101136.69;5055855;28;20205;-61
2023/06/03 07:46:54;;;;;;;1.45;0.77;;;;;;;18.14;31.72;101139.41;5056420;28;20212;-64
2023/06/03 07:49:23;;;;;;;3.33;0.60;;;;;;;17.38;32.86;101142.06;5055581;28;20634;-64
2023/06/03 07:51:53;;;;;;;1.92;0.70;;;;;;;16.92;34.40;101142.16;5057807;28;20208;-64
2023/06/03 07:54:22;;;;;;;2.28;0.60;;;;;;;16.69;34.58;101145.19;5050801;28;20209;-64
2023/06/03 07:56:50;;;;;;;5.28;0.70;;;;;;;16.58;35.70;101146.25;5059144;28;20297;-65
2023/06/03 07:59:20;;;;;;;0.60;0.50;;;;;;;16.41;34.61;101150.91;5061055;28;20215;-65
2023/06/03 08:01:51;;;;;;;0.75;0.57;;;;;;;16.01;35.03;101140.31;5054344;28;20677;-65
2023/06/03 08:04:31;;;;;;;1.08;0.70;;;;;;;15.72;36.54;101144.22;5054040;28;20648;-66
2023/06/03 08:07:02;;;;;;;1.65;0.80;;;;;;;15.53;37.25;101142.75;5039659;28;20252;-66
2023/06/03 08:09:34;;;;;;;2.63;0.80;;;;;;;15.38;38.12;101149.03;5052203;28;20201;-64
2023/06/03 08:12:05;;;;;;;0.70;0.70;;;;;;;15.42;38.59;101151.56;5050960;28;20209;-61
2023/06/03 08:14:35;;;;;;;2.92;0.93;;;;;;;15.48;37.75;101149.78;5052859;28;20292;-64
2023/06/03 08:17:08;;;;;;;4.20;0.90;;;;;;;15.45;38.30;101155.84;5044136;28;20224;-64
2023/06/03 08:19:37;;;;;;;1.63;1.00;;;;;;;15.51;39.11;101144.53;5044641;28;20794;-64
2023/06/03 08:22:29;;;;;;;1.48;0.63;;;;;;;15.60;38.00;101144.38;5051380;28;20731;-63
2023/06/03 08:24:57;;;;;;;2.20;0.60;;;;;;;15.54;37.21;101136.66;5053947;28;20602;-63
2023/06/03 08:27:25;;;;;;;1.25;0.70;;;;;;;15.44;36.93;101143.75;5054170;28;20198;-64
2023/06/03 08:29:53;;;;;;;1.98;0.60;;;;;;;15.39;37.13;101151.63;5047974;28;20664;-62
2023/06/03 08:32:22;;;;;;;2.92;0.80;;;;;;;15.39;37.36;101145.53;5046379;28;20210;-63
2023/06/03 08:34:50;;;;;;;1.58;0.75;;;;;;;15.38;37.80;101147.28;5048523;28;20205;-63
2023/06/03 08:37:20;;;;;;;2.78;0.77;;;;;;;15.44;37.97;101148.94;5050141;28;20210;-62
2023/06/03 08:39:48;;;;;;;1.23;0.60;;;;;;;15.41;37.29;101152.44;5053284;28;20549;-62
2023/06/03 08:42:22;;;;;;;1.10;0.60;;;;;;;15.45;37.80;101150.66;5057618;28;20214;-62
2023/06/03 08:45:01;;;;;;;0.60;0.50;;;;;;;15.61;37.43;101141.78;5044293;28;20198;-63
2023/06/03 08:47:36;;;;;;;4.00;0.70;;;;;;;15.69;36.27;101150.34;5050636;28;20202;-63
2023/06/03 08:50:06;;;;;;;1.13;0.50;;;;;;;15.73;36.27;101151.16;5050430;28;20216;-63
2023/06/03 08:52:36;;;;;;;2.30;0.70;;;;;;;15.78;36.06;101156.28;5051174;28;20210;-64
2023/06/03 08:55:06;;;;;;;0.98;0.60;;;;;;;15.82;35.83;101151.00;5046217;28;20229;-62
2023/06/03 08:57:36;;;;;;;0.90;0.55;;;;;;;15.87;35.54;101154.41;5048961;28;20587;-63
2023/06/03 09:00:07;;;;;;;0.75;0.60;;;;;;;15.94;35.42;101150.84;5048375;28;20220;-66
2023/06/03 09:02:37;;;;;;;2.33;0.70;;;;;;;16.01;35.47;101158.50;5049767;28;20224;-62
2023/06/03 09:05:06;;;;;;;3.28;0.90;;;;;;;16.04;35.68;101142.88;5052642;28;20205;-60
2023/06/03 09:07:36;;;;;;;5.88;1.08;;;;;;;16.09;35.15;101152.31;5055384;28;20202;-60
2023/06/03 09:10:05;;;;;;;1.20;0.77;;;;;;;16.16;34.76;101153.06;5049648;28;20667;-61
2023/06/03 09:12:34;;;;;;;1.48;0.55;;;;;;;16.21;34.40;101158.22;5050357;28;20198;-60
2023/06/03 09:15:04;;;;;;;4.07;0.63;;;;;;;16.24;34.52;101151.22;5046326;28;20208;-63
2023/06/03 09:17:32;;;;;;;1.73;0.43;;;;;;;16.27;34.76;101153.72;5049039;28;20229;-60
2023/06/03 09:20:02;;;;;;;2.15;0.75;;;;;;;16.24;34.72;101159.00;5053494;28;20212;-60
2023/06/03 09:22:30;;;;;;;1.40;0.75;;;;;;;16.23;34.63;101152.06;5046124;28;20209;-60
2023/06/03 09:25:00;;;;;;;2.22;0.70;;;;;;;16.22;34.60;101149.50;5054805;28;20249;-61
2023/06/03 09:27:28;;;;;;;1.58;0.52;;;;;;;16.29;35.19;101143.31;5049790;28;20244;-60
2023/06/03 09:29:56;;;;;;;1.95;0.65;;;;;;;16.32;34.22;101151.06;5049845;28;20285;-63
2023/06/03 09:32:24;;;;;;;0.68;0.63;;;;;;;16.38;34.36;101161.34;5050035;28;20213;-60
2023/06/03 09:34:53;;;;;;;1.10;0.50;;;;;;;16.43;34.02;101155.19;5057912;28;20293;-62
2023/06/03 09:37:21;;;;;;;1.80;0.75;;;;;;;16.52;33.69;101153.31;5047557;28;20213;-63
2023/06/03 09:39:49;;;;;;;2.58;0.75;;;;;;;16.64;33.68;101147.88;5050275;28;20225;-61
2023/06/03 09:42:18;;;;;;;1.38;0.47;;;;;;;16.73;33.71;101147.69;5057855;28;20218;-60
2023/06/03 09:44:49;;;;;;;1.35;0.57;;;;;;;16.77;34.03;101152.00;5055841;28;20280;-60
2023/06/03 09:47:17;;;;;;;0.98;0.50;;;;;;;16.81;33.59;101148.44;5060784;28;20297;-61
2023/06/03 09:50:04;;;;;;;1.00;0.47;;;;;;;16.77;32.76;101157.19;5053919;28;20201;-62
2023/06/03 09:52:32;;;;;;;0.80;0.50;;;;;;;16.67;32.13;101143.47;5052248;28;20222;-61
2023/06/03 09:55:02;;;;;;;1.00;0.63;;;;;;;16.69;32.74;101151.25;5039106;28;20194;-60
2023/06/03 09:57:32;;;;;;;2.70;0.43;;;;;;;16.71;32.33;101151.22;5054042;28;20733;-60
2023/06/03 10:00:10;;;;;;;1.02;0.50;;;;;;;16.88;33.01;101143.97;5051199;28;20210;-59
2023/06/03 10:02:40;;;;;;;2.45;0.65;;;;;;;17.15;31.96;101150.34;5056104;28;20233;-61
2023/06/03 10:05:26;;;;;;;5.63;0.98;;;;;;;17.36;31.74;101147.28;5053498;28;20293;-60
2023/06/03 10:07:54;;;;;;;3.45;0.70;;;;;;;17.69;31.63;101143.97;5053542;28;20216;-59
2023/06/03 10:10:23;;;;;;;3.10;0.52;;;;;;;18.23;31.22;101144.41;5052665;28;20681;-62
2023/06/03 10:12:52;;;;;;;2.88;1.02;;;;;;;19.02;30.87;101145.75;5053595;28;20202;-60
2023/06/03 10:15:37;;;;;;;0.88;0.55;;;;;;;19.87;28.26;101144.06;5053239;28;20202;-60
2023/06/03 10:18:06;;;;;;;1.65;0.60;;;;;;;20.58;27.41;101138.16;5063473;28;20445;-60
2023/06/03 10:20:36;;;;;;;0.90;0.82;;;;;;;21.24;25.16;101130.47;5053743;28;20273;-58
2023/06/03 10:23:06;;;;;;;2.30;0.60;;;;;;;21.93;24.95;101133.00;5050631;28;20304;-60
2023/06/03 10:25:41;;;;;;;0.70;0.50;;;;;;;22.90;23.94;101129.69;5053357;28;20561;-60
2023/06/03 10:28:10;;;;;;;1.50;0.50;;;;;;;23.65;22.17;101122.72;5062682;28;20243;-60
2023/06/03 10:30:39;;;;;;;1.92;0.70;;;;;;;24.33;21.75;101129.78;5052668;28;20202;-60
2023/06/03 10:33:09;;;;;;;2.20;0.80;;;;;;;25.16;20.93;101121.97;5053434;28;20202;-58
2023/06/03 10:35:38;;;;;;;0.68;0.68;;;;;;;26.06;20.36;101119.44;5050733;28;20221;-61
2023/06/03 10:38:08;;;;;;;1.23;0.43;;;;;;;26.71;19.28;101111.97;5053022;28;20213;-59
2023/06/03 10:40:36;;;;;;;3.08;0.70;;;;;;;27.24;18.31;101106.91;5050460;28;20213;-61
2023/06/03 10:43:04;;;;;;;1.77;0.60;;;;;;;27.33;18.16;101113.44;5052931;28;20221;-60
2023/06/03 10:45:34;;;;;;;0.60;0.50;;;;;;;27.60;17.83;101113.41;5052775;28;20205;-61
2023/06/03 10:48:08;;;;;;;4.25;2.35;;;;;;;28.00;17.23;101108.13;5052644;28;20206;-62
2023/06/03 10:50:53;;;;;;;1.17;0.65;;;;;;;28.74;16.82;101098.59;5052269;28;20251;-59
2023/06/03 10:53:37;;;;;;;10.65;0.60;;;;;;;29.66;15.99;101098.09;5045542;28;20213;-57
2023/06/03 10:56:08;;;;;;;0.63;0.40;;;;;;;30.15;15.38;101099.66;5051364;28;20212;-58
2023/06/03 10:58:41;;;;;;;1.63;0.68;;;;;;;30.33;15.06;101092.94;5055781;28;20572;-60
2023/06/03 11:01:10;;;;;;;3.50;0.70;;;;;;;30.68;14.80;101093.81;5050292;28;20610;-59
2023/06/03 11:04:12;;;;;;;0.55;0.40;;;;;;;31.02;13.93;101082.16;5059883;28;20667;-61
2023/06/03 11:06:40;;;;;;;1.58;0.70;;;;;;;31.35;13.59;101083.06;5050555;28;20567;-60
2023/06/03 11:09:12;;;;;;;0.82;0.50;;;;;;;31.16;13.27;101081.06;5052757;28;20202;-60
2023/06/03 11:12:06;;;;;;;2.22;0.40;;;;;;;30.96;13.37;101084.47;5052171;28;20206;-60
2023/06/03 11:14:56;;;;;;;0.47;0.40;;;;;;;30.35;13.32;101084.03;5049796;28;20727;-60
2023/06/03 11:17:27;;;;;;;2.83;0.50;;;;;;;29.97;13.99;101090.44;5053635;28;20213;-60
2023/06/03 11:19:59;;;;;;;2.30;0.50;;;;;;;30.01;14.21;101082.16;5057437;28;20573;-60
2023/06/03 11:22:46;;;;;;;0.50;0.50;;;;;;;30.15;13.34;101085.53;5050525;28;20221;-59
2023/06/03 11:25:29;;;;;;;1.38;0.50;;;;;;;29.91;13.88;101075.84;5052368;28;20287;-59
2023/06/03 11:28:36;;;;;;;0.45;0.40;;;;;;;29.72;14.18;101083.53;5052192;28;20279;-61
2023/06/03 11:31:06;;;;;;;1.20;0.50;;;;;;;29.69;14.22;101083.75;5052472;28;20593;-60
2023/06/03 11:33:37;;;;;;;1.33;0.47;;;;;;;29.48;14.65;101087.00;5052396;28;20202;-60
2023/06/03 11:36:57;;;;;;;0.70;0.60;;;;;;;29.18;14.65;101074.19;5051506;28;20198;-59
2023/06/03 11:39:25;;;;;;;0.90;0.50;;;;;;;28.18;15.01;101090.97;5052036;28;20194;-60
2023/06/03 11:42:09;;;;;;;0.52;0.50;;;;;;;26.75;16.10;101091.47;5051738;28;20440;-61
2023/06/03 11:44:40;;;;;;;0.80;0.55;;;;;;;26.21;16.67;101085.97;5051464;28;20569;-60